sensor_id;sensor_type;location;lat;lon;timestamp;pressure;altitude;pressure_sealevel;temperature;humidity
50852;BME280;43953;45.508;-122.806;2022-08-07T00:00:28;100557.06;;;37.21;14.97
50852;BME280;43953;45.508;-122.806;2022-08-07T00:01:00;100559.84;;;37.21;15.28
50852;BME280;43953;45.508;-122.806;2022-08-07T00:01:32;100555.88;;;37.22;15.03
50852;BME280;43953;45.508;-122.806;2022-08-07T00:02:04;100547.81;;;37.20;15.01
50852;BME280;43953;45.508;-122.806;2022-08-07T00:02:36;100557.88;;;37.21;14.88
50852;BME280;43953;45.508;-122.806;2022-08-07T00:03:07;100554.25;;;37.21;15.17
50852;BME280;43953;45.508;-122.806;2022-08-07T00:03:39;100556.25;;;37.20;15.05
50852;BME280;43953;45.508;-122.806;2022-08-07T00:04:11;100556.66;;;37.19;14.94
50852;BME280;43953;45.508;-122.806;2022-08-07T00:04:43;100558.63;;;37.18;15.05
50852;BME280;43953;45.508;-122.806;2022-08-07T00:05:14;100557.44;;;37.16;15.06
50852;BME280;43953;45.508;-122.806;2022-08-07T00:05:46;100550.22;;;37.15;15.05
50852;BME280;43953;45.508;-122.806;2022-08-07T00:06:18;100548.63;;;37.14;15.07
50852;BME280;43953;45.508;-122.806;2022-08-07T00:06:50;100546.19;;;37.12;15.14
50852;BME280;43953;45.508;-122.806;2022-08-07T00:07:21;100551.00;;;37.11;15.11
50852;BME280;43953;45.508;-122.806;2022-08-07T00:07:54;100550.63;;;37.09;15.20
50852;BME280;43953;45.508;-122.806;2022-08-07T00:08:26;100553.41;;;37.09;15.23
50852;BME280;43953;45.508;-122.806;2022-08-07T00:08:57;100549.78;;;37.09;15.47
50852;BME280;43953;45.508;-122.806;2022-08-07T00:09:29;100549.78;;;37.09;15.38
50852;BME280;43953;45.508;-122.806;2022-08-07T00:10:01;100549.78;;;37.09;15.68
50852;BME280;43953;45.508;-122.806;2022-08-07T00:10:32;100551.78;;;37.08;15.32
50852;BME280;43953;45.508;-122.806;2022-08-07T00:11:05;100548.97;;;37.08;15.43
50852;BME280;43953;45.508;-122.806;2022-08-07T00:11:37;100555.81;;;37.07;15.36
50852;BME280;43953;45.508;-122.806;2022-08-07T00:12:09;100553.00;;;37.07;15.37
50852;BME280;43953;45.508;-122.806;2022-08-07T00:12:41;100550.56;;;37.06;14.97
50852;BME280;43953;45.508;-122.806;2022-08-07T00:13:15;100549.78;;;37.05;15.15
50852;BME280;43953;45.508;-122.806;2022-08-07T00:13:47;100543.38;;;37.05;15.42
50852;BME280;43953;45.508;-122.806;2022-08-07T00:14:18;100548.56;;;37.03;15.75
50852;BME280;43953;45.508;-122.806;2022-08-07T00:14:50;100542.91;;;36.99;15.87
50852;BME280;43953;45.508;-122.806;2022-08-07T00:15:22;100546.06;;;36.94;15.83
50852;BME280;43953;45.508;-122.806;2022-08-07T00:15:55;100542.47;;;36.90;15.65
50852;BME280;43953;45.508;-122.806;2022-08-07T00:16:27;100548.84;;;36.87;16.06
50852;BME280;43953;45.508;-122.806;2022-08-07T00:17:00;100545.63;;;36.85;15.93
50852;BME280;43953;45.508;-122.806;2022-08-07T00:17:32;100543.22;;;36.83;16.56
50852;BME280;43953;45.508;-122.806;2022-08-07T00:18:03;100553.66;;;36.83;16.59
50852;BME280;43953;45.508;-122.806;2022-08-07T00:18:35;100557.25;;;36.80;16.25
50852;BME280;43953;45.508;-122.806;2022-08-07T00:19:07;100545.59;;;36.78;16.09
50852;BME280;43953;45.508;-122.806;2022-08-07T00:19:39;100553.59;;;36.76;16.37
50852;BME280;43953;45.508;-122.806;2022-08-07T00:20:11;100541.16;;;36.73;16.05
50852;BME280;43953;45.508;-122.806;2022-08-07T00:20:42;100553.16;;;36.70;16.11
50852;BME280;43953;45.508;-122.806;2022-08-07T00:21:14;100544.34;;;36.68;16.30
50852;BME280;43953;45.508;-122.806;2022-08-07T00:21:46;100552.78;;;36.68;16.67
50852;BME280;43953;45.508;-122.806;2022-08-07T00:22:18;100550.34;;;36.66;16.60
50852;BME280;43953;45.508;-122.806;2022-08-07T00:22:50;100550.34;;;36.66;16.48
50852;BME280;43953;45.508;-122.806;2022-08-07T00:23:21;100549.53;;;36.66;16.32
50852;BME280;43953;45.508;-122.806;2022-08-07T00:23:53;100551.53;;;36.65;16.29
50852;BME280;43953;45.508;-122.806;2022-08-07T00:24:25;100551.13;;;36.63;16.54
50852;BME280;43953;45.508;-122.806;2022-08-07T00:24:56;100552.31;;;36.62;16.13
50852;BME280;43953;45.508;-122.806;2022-08-07T00:25:28;100550.69;;;36.61;16.16
50852;BME280;43953;45.508;-122.806;2022-08-07T00:26:01;100550.69;;;36.58;16.13
50852;BME280;43953;45.508;-122.806;2022-08-07T00:26:33;100553.47;;;36.54;16.31
50852;BME280;43953;45.508;-122.806;2022-08-07T00:27:05;100552.25;;;36.52;16.38
50852;BME280;43953;45.508;-122.806;2022-08-07T00:27:36;100542.56;;;36.49;16.39
50852;BME280;43953;45.508;-122.806;2022-08-07T00:28:08;100548.59;;;36.48;16.48
50852;BME280;43953;45.508;-122.806;2022-08-07T00:28:40;100548.16;;;36.45;16.57
50852;BME280;43953;45.508;-122.806;2022-08-07T00:29:13;100546.94;;;36.43;16.45
50852;BME280;43953;45.508;-122.806;2022-08-07T00:29:47;100548.16;;;36.42;16.66
50852;BME280;43953;45.508;-122.806;2022-08-07T00:30:20;100547.34;;;36.41;16.57
50852;BME280;43953;45.508;-122.806;2022-08-07T00:30:52;100542.13;;;36.40;16.55
50852;BME280;43953;45.508;-122.806;2022-08-07T00:31:24;100540.50;;;36.39;16.59
50852;BME280;43953;45.508;-122.806;2022-08-07T00:31:56;100547.28;;;36.38;16.50
50852;BME280;43953;45.508;-122.806;2022-08-07T00:32:32;100542.91;;;36.37;16.56
50852;BME280;43953;45.508;-122.806;2022-08-07T00:33:03;100546.06;;;36.35;16.72
50852;BME280;43953;45.508;-122.806;2022-08-07T00:33:36;100551.28;;;36.33;16.51
50852;BME280;43953;45.508;-122.806;2022-08-07T00:34:08;100549.66;;;36.32;16.75
50852;BME280;43953;45.508;-122.806;2022-08-07T00:34:40;100552.06;;;36.30;17.37
50852;BME280;43953;45.508;-122.806;2022-08-07T00:35:12;100545.59;;;36.26;17.12
50852;BME280;43953;45.508;-122.806;2022-08-07T00:35:43;100542.78;;;36.22;17.10
50852;BME280;43953;45.508;-122.806;2022-08-07T00:36:15;100547.16;;;36.20;17.23
50852;BME280;43953;45.508;-122.806;2022-08-07T00:36:47;100543.97;;;36.18;16.98
50852;BME280;43953;45.508;-122.806;2022-08-07T00:37:19;100543.91;;;36.14;17.21
50852;BME280;43953;45.508;-122.806;2022-08-07T00:37:50;100542.31;;;36.13;16.91
50852;BME280;43953;45.508;-122.806;2022-08-07T00:38:22;100540.72;;;36.12;17.23
50852;BME280;43953;45.508;-122.806;2022-08-07T00:38:54;100540.28;;;36.10;17.40
50852;BME280;43953;45.508;-122.806;2022-08-07T00:39:26;100547.09;;;36.09;17.39
50852;BME280;43953;45.508;-122.806;2022-08-07T00:39:57;100545.47;;;36.08;17.48
50852;BME280;43953;45.508;-122.806;2022-08-07T00:40:30;100543.88;;;36.07;17.52
50852;BME280;43953;45.508;-122.806;2022-08-07T00:41:03;100542.25;;;36.06;17.59
50852;BME280;43953;45.508;-122.806;2022-08-07T00:41:35;100547.03;;;36.06;17.59
50852;BME280;43953;45.508;-122.806;2022-08-07T00:42:07;100542.63;;;36.05;17.24
50852;BME280;43953;45.508;-122.806;2022-08-07T00:42:39;100539.38;;;36.03;17.47
50852;BME280;43953;45.508;-122.806;2022-08-07T00:43:12;100541.84;;;36.04;17.65
50852;BME280;43953;45.508;-122.806;2022-08-07T00:43:44;100546.63;;;36.04;17.54
50852;BME280;43953;45.508;-122.806;2022-08-07T00:44:15;100546.97;;;36.02;17.16
50852;BME280;43953;45.508;-122.806;2022-08-07T00:44:47;100542.56;;;36.01;17.26
50852;BME280;43953;45.508;-122.806;2022-08-07T00:45:19;100540.97;;;36.00;17.33
50852;BME280;43953;45.508;-122.806;2022-08-07T00:45:51;100544.94;;;35.99;17.17
50852;BME280;43953;45.508;-122.806;2022-08-07T00:46:23;100542.94;;;35.99;17.58
50852;BME280;43953;45.508;-122.806;2022-08-07T00:46:56;100537.75;;;35.98;17.54
50852;BME280;43953;45.508;-122.806;2022-08-07T00:47:28;100540.56;;;35.98;17.45
50852;BME280;43953;45.508;-122.806;2022-08-07T00:47:59;100536.16;;;35.97;17.62
50852;BME280;43953;45.508;-122.806;2022-08-07T00:48:31;100538.53;;;35.95;17.52
50852;BME280;43953;45.508;-122.806;2022-08-07T00:49:03;100539.69;;;35.94;17.61
50852;BME280;43953;45.508;-122.806;2022-08-07T00:49:34;100535.28;;;35.93;17.53
50852;BME280;43953;45.508;-122.806;2022-08-07T00:50:07;100533.25;;;35.90;17.27
50852;BME280;43953;45.508;-122.806;2022-08-07T00:50:39;100540.06;;;35.89;17.63
50852;BME280;43953;45.508;-122.806;2022-08-07T00:51:10;100534.84;;;35.87;17.69
50852;BME280;43953;45.508;-122.806;2022-08-07T00:51:43;100536.03;;;35.86;17.87
50852;BME280;43953;45.508;-122.806;2022-08-07T00:52:15;100528.00;;;35.85;17.78
50852;BME280;43953;45.508;-122.806;2022-08-07T00:52:47;100532.00;;;35.84;17.97
50852;BME280;43953;45.508;-122.806;2022-08-07T00:53:19;100536.81;;;35.83;18.04
50852;BME280;43953;45.508;-122.806;2022-08-07T00:53:51;100529.97;;;35.81;17.24
50852;BME280;43953;45.508;-122.806;2022-08-07T00:54:23;100527.56;;;35.79;17.71
50852;BME280;43953;45.508;-122.806;2022-08-07T00:54:55;100537.94;;;35.78;17.53
50852;BME280;43953;45.508;-122.806;2022-08-07T00:55:27;100534.75;;;35.76;18.10
50852;BME280;43953;45.508;-122.806;2022-08-07T00:56:00;100530.72;;;35.74;18.05
50852;BME280;43953;45.508;-122.806;2022-08-07T00:56:34;100530.28;;;35.72;18.03
50852;BME280;43953;45.508;-122.806;2022-08-07T00:57:05;100527.06;;;35.70;17.66
50852;BME280;43953;45.508;-122.806;2022-08-07T00:57:37;100529.84;;;35.66;17.90
50852;BME280;43953;45.508;-122.806;2022-08-07T00:58:09;100525.00;;;35.63;18.01
50852;BME280;43953;45.508;-122.806;2022-08-07T00:58:42;100528.56;;;35.60;18.05
50852;BME280;43953;45.508;-122.806;2022-08-07T00:59:14;100525.34;;;35.58;18.00
50852;BME280;43953;45.508;-122.806;2022-08-07T00:59:46;100533.34;;;35.56;18.41
50852;BME280;43953;45.508;-122.806;2022-08-07T01:00:18;100528.47;;;35.53;18.37
50852;BME280;43953;45.508;-122.806;2022-08-07T01:00:50;100526.84;;;35.52;18.02
50852;BME280;43953;45.508;-122.806;2022-08-07T01:01:22;100536.44;;;35.51;18.10
50852;BME280;43953;45.508;-122.806;2022-08-07T01:01:54;100525.63;;;35.49;18.13
50852;BME280;43953;45.508;-122.806;2022-08-07T01:02:26;100521.22;;;35.48;18.39
50852;BME280;43953;45.508;-122.806;2022-08-07T01:02:58;100520.41;;;35.48;18.12
50852;BME280;43953;45.508;-122.806;2022-08-07T01:03:30;100523.59;;;35.46;18.20
50852;BME280;43953;45.508;-122.806;2022-08-07T01:04:06;100522.38;;;35.44;18.34
50852;BME280;43953;45.508;-122.806;2022-08-07T01:04:38;100528.34;;;35.42;18.26
50852;BME280;43953;45.508;-122.806;2022-08-07T01:05:11;100531.53;;;35.41;18.58
50852;BME280;43953;45.508;-122.806;2022-08-07T01:05:43;100529.13;;;35.39;18.78
50852;BME280;43953;45.508;-122.806;2022-08-07T01:06:17;100533.13;;;35.38;18.77
50852;BME280;43953;45.508;-122.806;2022-08-07T01:06:49;100519.50;;;35.37;18.72
50852;BME280;43953;45.508;-122.806;2022-08-07T01:07:21;100526.28;;;35.36;18.35
50852;BME280;43953;45.508;-122.806;2022-08-07T01:07:53;100526.66;;;35.34;18.71
50852;BME280;43953;45.508;-122.806;2022-08-07T01:08:25;100517.84;;;35.32;18.46
50852;BME280;43953;45.508;-122.806;2022-08-07T01:08:58;100525.81;;;35.30;18.84
50852;BME280;43953;45.508;-122.806;2022-08-07T01:09:31;100521.00;;;35.27;18.61
50852;BME280;43953;45.508;-122.806;2022-08-07T01:10:03;100530.56;;;35.26;18.81
50852;BME280;43953;45.508;-122.806;2022-08-07T01:10:35;100521.75;;;35.24;18.98
50852;BME280;43953;45.508;-122.806;2022-08-07T01:11:10;100520.13;;;35.23;18.76
50852;BME280;43953;45.508;-122.806;2022-08-07T01:11:42;100519.31;;;35.22;18.82
50852;BME280;43953;45.508;-122.806;2022-08-07T01:12:15;100522.50;;;35.21;18.82
50852;BME280;43953;45.508;-122.806;2022-08-07T01:12:47;100522.88;;;35.19;18.62
50852;BME280;43953;45.508;-122.806;2022-08-07T01:13:20;100524.09;;;35.18;18.77
50852;BME280;43953;45.508;-122.806;2022-08-07T01:13:52;100524.09;;;35.18;18.80
50852;BME280;43953;45.508;-122.806;2022-08-07T01:14:24;100524.84;;;35.15;19.00
50852;BME280;43953;45.508;-122.806;2022-08-07T01:14:56;100524.03;;;35.15;18.79
50852;BME280;43953;45.508;-122.806;2022-08-07T01:15:31;100518.81;;;35.13;18.85
50852;BME280;43953;45.508;-122.806;2022-08-07T01:16:06;100523.59;;;35.13;18.84
50852;BME280;43953;45.508;-122.806;2022-08-07T01:16:38;100521.19;;;35.11;18.79
50852;BME280;43953;45.508;-122.806;2022-08-07T01:17:11;100524.38;;;35.09;18.97
50852;BME280;43953;45.508;-122.806;2022-08-07T01:17:43;100519.13;;;35.08;19.05
50852;BME280;43953;45.508;-122.806;2022-08-07T01:18:15;100513.13;;;35.06;19.10
50852;BME280;43953;45.508;-122.806;2022-08-07T01:18:48;100518.28;;;35.04;19.09
50852;BME280;43953;45.508;-122.806;2022-08-07T01:19:21;100516.66;;;35.03;18.92
50852;BME280;43953;45.508;-122.806;2022-08-07T01:19:57;100511.00;;;34.99;18.94
50852;BME280;43953;45.508;-122.806;2022-08-07T01:20:44;100516.56;;;34.96;18.68
50852;BME280;43953;45.508;-122.806;2022-08-07T01:21:18;100514.16;;;34.94;18.76
50852;BME280;43953;45.508;-122.806;2022-08-07T01:21:53;100518.13;;;34.93;18.87
50852;BME280;43953;45.508;-122.806;2022-08-07T01:22:25;100510.50;;;34.90;19.24
50852;BME280;43953;45.508;-122.806;2022-08-07T01:22:58;100515.69;;;34.88;19.18
50852;BME280;43953;45.508;-122.806;2022-08-07T01:23:31;100512.44;;;34.86;19.33
50852;BME280;43953;45.508;-122.806;2022-08-07T01:24:04;100509.22;;;34.84;19.06
50852;BME280;43953;45.508;-122.806;2022-08-07T01:24:37;100508.81;;;34.82;19.42
50852;BME280;43953;45.508;-122.806;2022-08-07T01:25:10;100511.16;;;34.80;19.16
50852;BME280;43953;45.508;-122.806;2022-08-07T01:25:42;100510.38;;;34.79;19.00
50852;BME280;43953;45.508;-122.806;2022-08-07T01:26:16;100512.72;;;34.77;19.33
50852;BME280;43953;45.508;-122.806;2022-08-07T01:26:49;100506.28;;;34.73;19.23
50852;BME280;43953;45.508;-122.806;2022-08-07T01:27:21;100503.50;;;34.73;19.39
50852;BME280;43953;45.508;-122.806;2022-08-07T01:27:54;100507.47;;;34.72;19.55
50852;BME280;43953;45.508;-122.806;2022-08-07T01:28:27;100510.66;;;34.71;19.68
50852;BME280;43953;45.508;-122.806;2022-08-07T01:28:59;100505.06;;;34.71;19.61
50852;BME280;43953;45.508;-122.806;2022-08-07T01:29:32;100506.63;;;34.68;19.67
50852;BME280;43953;45.508;-122.806;2022-08-07T01:30:05;100507.38;;;34.65;19.64
50852;BME280;43953;45.508;-122.806;2022-08-07T01:30:37;100501.72;;;34.61;19.60
50852;BME280;43953;45.508;-122.806;2022-08-07T01:31:10;100503.28;;;34.59;19.61
50852;BME280;43953;45.508;-122.806;2022-08-07T01:31:42;100506.44;;;34.57;19.64
50852;BME280;43953;45.508;-122.806;2022-08-07T01:32:14;100501.25;;;34.56;19.96
50852;BME280;43953;45.508;-122.806;2022-08-07T01:32:46;100502.41;;;34.55;19.77
50852;BME280;43953;45.508;-122.806;2022-08-07T01:33:19;100503.97;;;34.52;19.44
50852;BME280;43953;45.508;-122.806;2022-08-07T01:33:50;100505.94;;;34.52;19.82
50852;BME280;43953;45.508;-122.806;2022-08-07T01:34:22;100505.53;;;34.50;19.72
50852;BME280;43953;45.508;-122.806;2022-08-07T01:34:54;100510.31;;;34.49;19.79
50852;BME280;43953;45.508;-122.806;2022-08-07T01:35:26;100507.88;;;34.48;20.09
50852;BME280;43953;45.508;-122.806;2022-08-07T01:35:58;100512.28;;;34.49;20.11
50852;BME280;43953;45.508;-122.806;2022-08-07T01:36:30;100505.47;;;34.46;20.02
50852;BME280;43953;45.508;-122.806;2022-08-07T01:37:02;100510.25;;;34.46;19.83
50852;BME280;43953;45.508;-122.806;2022-08-07T01:37:34;100503.03;;;34.45;20.18
50852;BME280;43953;45.508;-122.806;2022-08-07T01:38:06;100502.59;;;34.42;19.69
50852;BME280;43953;45.508;-122.806;2022-08-07T01:38:39;100508.59;;;34.41;19.90
50852;BME280;43953;45.508;-122.806;2022-08-07T01:39:11;100507.78;;;34.40;19.81
50852;BME280;43953;45.508;-122.806;2022-08-07T01:39:44;100509.34;;;34.38;20.50
50852;BME280;43953;45.508;-122.806;2022-08-07T01:40:19;100504.50;;;34.35;20.04
50852;BME280;43953;45.508;-122.806;2022-08-07T01:40:54;100504.47;;;34.31;20.49
50852;BME280;43953;45.508;-122.806;2022-08-07T01:41:27;100507.63;;;34.30;20.69
50852;BME280;43953;45.508;-122.806;2022-08-07T01:41:59;100506.81;;;34.29;20.51
50852;BME280;43953;45.508;-122.806;2022-08-07T01:42:32;100508.41;;;34.30;20.61
50852;BME280;43953;45.508;-122.806;2022-08-07T01:43:04;100505.19;;;34.28;20.55
50852;BME280;43953;45.508;-122.806;2022-08-07T01:43:36;100505.56;;;34.27;20.33
50852;BME280;43953;45.508;-122.806;2022-08-07T01:44:09;100501.97;;;34.26;20.64
50852;BME280;43953;45.508;-122.806;2022-08-07T01:44:41;100509.91;;;34.24;20.47
50852;BME280;43953;45.508;-122.806;2022-08-07T01:45:13;100505.88;;;34.22;20.86
50852;BME280;43953;45.508;-122.806;2022-08-07T01:45:46;100513.84;;;34.19;20.53
50852;BME280;43953;45.508;-122.806;2022-08-07T01:46:19;100504.22;;;34.17;20.46
50852;BME280;43953;45.508;-122.806;2022-08-07T01:46:51;100507.38;;;34.15;20.86
50852;BME280;43953;45.508;-122.806;2022-08-07T01:47:23;100504.97;;;34.14;20.74
50852;BME280;43953;45.508;-122.806;2022-08-07T01:47:55;100507.78;;;34.14;20.60
50852;BME280;43953;45.508;-122.806;2022-08-07T01:48:27;100496.97;;;34.12;21.22
50852;BME280;43953;45.508;-122.806;2022-08-07T01:48:59;100508.53;;;34.11;21.11
50852;BME280;43953;45.508;-122.806;2022-08-07T01:49:30;100506.88;;;34.10;20.87
50852;BME280;43953;45.508;-122.806;2022-08-07T01:50:04;100503.69;;;34.08;20.94
50852;BME280;43953;45.508;-122.806;2022-08-07T01:50:37;100500.44;;;34.06;20.91
50852;BME280;43953;45.508;-122.806;2022-08-07T01:51:17;100504.31;;;34.01;21.25
50852;BME280;43953;45.508;-122.806;2022-08-07T01:51:49;100499.13;;;34.00;21.07
50852;BME280;43953;45.508;-122.806;2022-08-07T01:52:24;100497.50;;;33.98;21.07
50852;BME280;43953;45.508;-122.806;2022-08-07T01:52:58;100504.25;;;33.97;20.92
50852;BME280;43953;45.508;-122.806;2022-08-07T01:53:33;100499.06;;;33.96;21.44
50852;BME280;43953;45.508;-122.806;2022-08-07T01:54:07;100505.44;;;33.96;21.32
50852;BME280;43953;45.508;-122.806;2022-08-07T01:54:41;100499.88;;;33.96;21.21
50852;BME280;43953;45.508;-122.806;2022-08-07T01:55:15;100503.81;;;33.95;21.33
50852;BME280;43953;45.508;-122.806;2022-08-07T01:55:55;100499.44;;;33.94;20.77
50852;BME280;43953;45.508;-122.806;2022-08-07T01:56:45;100499.44;;;33.94;20.97
50852;BME280;43953;45.508;-122.806;2022-08-07T01:57:22;100502.22;;;33.94;20.98
50852;BME280;43953;45.508;-122.806;2022-08-07T01:57:58;100496.63;;;33.94;20.84
50852;BME280;43953;45.508;-122.806;2022-08-07T01:58:43;100503.41;;;33.93;21.03
50852;BME280;43953;45.508;-122.806;2022-08-07T01:59:50;100497.81;;;33.93;20.89
50852;BME280;43953;45.508;-122.806;2022-08-07T02:00:19;100499.81;;;33.93;21.36
50852;BME280;43953;45.508;-122.806;2022-08-07T02:00:56;100499.81;;;33.93;20.95
50852;BME280;43953;45.508;-122.806;2022-08-07T02:01:34;100498.97;;;33.92;21.20
50852;BME280;43953;45.508;-122.806;2022-08-07T02:02:14;100500.63;;;33.93;20.82
50852;BME280;43953;45.508;-122.806;2022-08-07T02:02:52;100500.63;;;33.93;20.95
50852;BME280;43953;45.508;-122.806;2022-08-07T02:03:28;100493.41;;;33.92;21.14
50852;BME280;43953;45.508;-122.806;2022-08-07T02:04:15;100498.56;;;33.90;20.99
50852;BME280;43953;45.508;-122.806;2022-08-07T02:04:54;100494.16;;;33.89;20.93
50852;BME280;43953;45.508;-122.806;2022-08-07T02:05:43;100494.09;;;33.86;21.36
50852;BME280;43953;45.508;-122.806;2022-08-07T02:06:18;100497.28;;;33.84;21.35
50852;BME280;43953;45.508;-122.806;2022-08-07T02:06:52;100488.06;;;33.84;21.55
50852;BME280;43953;45.508;-122.806;2022-08-07T02:07:31;100496.81;;;33.82;21.49
50852;BME280;43953;45.508;-122.806;2022-08-07T02:08:10;100494.78;;;33.79;21.18
50852;BME280;43953;45.508;-122.806;2022-08-07T02:08:45;100494.78;;;33.79;21.17
50852;BME280;43953;45.508;-122.806;2022-08-07T02:09:19;100495.97;;;33.78;21.50
50852;BME280;43953;45.508;-122.806;2022-08-07T02:09:54;100492.34;;;33.78;21.68
50852;BME280;43953;45.508;-122.806;2022-08-07T02:10:28;100495.53;;;33.76;21.37
50852;BME280;43953;45.508;-122.806;2022-08-07T02:11:02;100494.28;;;33.73;21.52
50852;BME280;43953;45.508;-122.806;2022-08-07T02:11:37;100498.63;;;33.71;21.48
50852;BME280;43953;45.508;-122.806;2022-08-07T02:12:11;100501.78;;;33.69;21.84
50852;BME280;43953;45.508;-122.806;2022-08-07T02:12:51;100493.78;;;33.68;21.76
50852;BME280;43953;45.508;-122.806;2022-08-07T02:13:26;100490.97;;;33.68;21.79
50852;BME280;43953;45.508;-122.806;2022-08-07T02:14:00;100486.59;;;33.67;21.90
50852;BME280;43953;45.508;-122.806;2022-08-07T02:14:34;100503.34;;;33.67;21.84
50852;BME280;43953;45.508;-122.806;2022-08-07T02:15:07;100492.97;;;33.67;21.72
50852;BME280;43953;45.508;-122.806;2022-08-07T02:15:41;100489.38;;;33.67;21.53
50852;BME280;43953;45.508;-122.806;2022-08-07T02:16:15;100496.97;;;33.66;21.89
50852;BME280;43953;45.508;-122.806;2022-08-07T02:16:49;100500.09;;;33.65;21.67
50852;BME280;43953;45.508;-122.806;2022-08-07T02:17:22;100494.53;;;33.65;21.84
50852;BME280;43953;45.508;-122.806;2022-08-07T02:17:56;100501.28;;;33.64;22.17
50852;BME280;43953;45.508;-122.806;2022-08-07T02:18:30;100502.44;;;33.63;21.53
50852;BME280;43953;45.508;-122.806;2022-08-07T02:19:06;100498.06;;;33.62;21.92
50852;BME280;43953;45.508;-122.806;2022-08-07T02:19:41;100510.41;;;33.61;21.87
50852;BME280;43953;45.508;-122.806;2022-08-07T02:20:13;100503.19;;;33.60;21.63
50852;BME280;43953;45.508;-122.806;2022-08-07T02:20:49;100494.00;;;33.59;21.96
50852;BME280;43953;45.508;-122.806;2022-08-07T02:21:22;100498.78;;;33.59;21.56
50852;BME280;43953;45.508;-122.806;2022-08-07T02:21:55;100505.97;;;33.60;21.78
50852;BME280;43953;45.508;-122.806;2022-08-07T02:22:29;100497.19;;;33.58;21.75
50852;BME280;43953;45.508;-122.806;2022-08-07T02:23:04;100504.75;;;33.57;21.83
50852;BME280;43953;45.508;-122.806;2022-08-07T02:23:38;100505.56;;;33.58;21.77
50852;BME280;43953;45.508;-122.806;2022-08-07T02:24:11;100504.75;;;33.57;21.74
50852;BME280;43953;45.508;-122.806;2022-08-07T02:24:47;100503.94;;;33.57;22.25
50852;BME280;43953;45.508;-122.806;2022-08-07T02:25:21;100503.94;;;33.57;22.01
50852;BME280;43953;45.508;-122.806;2022-08-07T02:25:54;100500.34;;;33.56;21.88
50852;BME280;43953;45.508;-122.806;2022-08-07T02:26:28;100497.56;;;33.56;21.96
50852;BME280;43953;45.508;-122.806;2022-08-07T02:27:01;100500.72;;;33.55;22.02
50852;BME280;43953;45.508;-122.806;2022-08-07T02:27:35;100501.53;;;33.55;21.83
50852;BME280;43953;45.508;-122.806;2022-08-07T02:28:10;100500.28;;;33.52;22.28
50852;BME280;43953;45.508;-122.806;2022-08-07T02:28:43;100508.66;;;33.52;22.09
50852;BME280;43953;45.508;-122.806;2022-08-07T02:29:15;100501.47;;;33.51;21.94
50852;BME280;43953;45.508;-122.806;2022-08-07T02:29:48;100503.78;;;33.49;21.97
50852;BME280;43953;45.508;-122.806;2022-08-07T02:30:20;100509.38;;;33.49;22.25
50852;BME280;43953;45.508;-122.806;2022-08-07T02:30:54;100502.19;;;33.48;22.14
50852;BME280;43953;45.508;-122.806;2022-08-07T02:31:27;100504.13;;;33.48;21.84
50852;BME280;43953;45.508;-122.806;2022-08-07T02:32:00;100502.88;;;33.45;22.38
50852;BME280;43953;45.508;-122.806;2022-08-07T02:32:33;100501.28;;;33.44;22.34
50852;BME280;43953;45.508;-122.806;2022-08-07T02:33:10;100509.22;;;33.42;22.34
50852;BME280;43953;45.508;-122.806;2022-08-07T02:33:44;100509.94;;;33.39;22.12
50852;BME280;43953;45.508;-122.806;2022-08-07T02:34:17;100501.50;;;33.36;22.18
50852;BME280;43953;45.508;-122.806;2022-08-07T02:34:50;100507.53;;;33.38;22.24
50852;BME280;43953;45.508;-122.806;2022-08-07T02:35:24;100504.31;;;33.36;22.24
50852;BME280;43953;45.508;-122.806;2022-08-07T02:35:57;100511.88;;;33.35;22.55
50852;BME280;43953;45.508;-122.806;2022-08-07T02:36:30;100506.66;;;33.34;22.43
50852;BME280;43953;45.508;-122.806;2022-08-07T02:37:04;100507.84;;;33.33;22.48
50852;BME280;43953;45.508;-122.806;2022-08-07T02:37:39;100506.22;;;33.32;22.29
50852;BME280;43953;45.508;-122.806;2022-08-07T02:38:13;100510.56;;;33.29;22.78
50852;BME280;43953;45.508;-122.806;2022-08-07T02:38:47;100510.50;;;33.25;22.75
50852;BME280;43953;45.508;-122.806;2022-08-07T02:39:19;100501.31;;;33.25;22.73
50852;BME280;43953;45.508;-122.806;2022-08-07T02:39:53;100502.47;;;33.24;22.70
50852;BME280;43953;45.508;-122.806;2022-08-07T02:40:27;100499.28;;;33.22;22.36
50852;BME280;43953;45.508;-122.806;2022-08-07T02:41:00;100506.00;;;33.21;22.46
50852;BME280;43953;45.508;-122.806;2022-08-07T02:41:33;100501.53;;;33.16;22.43
50852;BME280;43953;45.508;-122.806;2022-08-07T02:42:06;100512.59;;;33.13;22.68
50852;BME280;43953;45.508;-122.806;2022-08-07T02:42:38;100511.38;;;33.10;22.56
50852;BME280;43953;45.508;-122.806;2022-08-07T02:43:10;100506.53;;;33.07;23.01
50852;BME280;43953;45.508;-122.806;2022-08-07T02:43:43;100509.69;;;33.05;22.46
50852;BME280;43953;45.508;-122.806;2022-08-07T02:44:15;100510.88;;;33.04;23.05
50852;BME280;43953;45.508;-122.806;2022-08-07T02:44:49;100507.63;;;33.02;22.63
50852;BME280;43953;45.508;-122.806;2022-08-07T02:45:25;100513.94;;;32.99;22.92
50852;BME280;43953;45.508;-122.806;2022-08-07T02:45:58;100513.47;;;32.97;23.12
50852;BME280;43953;45.508;-122.806;2022-08-07T02:46:32;100512.22;;;32.95;23.16
50852;BME280;43953;45.508;-122.806;2022-08-07T02:47:06;100513.75;;;32.92;22.86
50852;BME280;43953;45.508;-122.806;2022-08-07T02:47:39;100506.56;;;32.91;22.72